createdAt,value
2019-03-21T00:04:31.171Z,1.37
2019-03-21T00:10:26.174Z,1.58
2019-03-21T00:16:21.188Z,1.63
2019-03-21T00:22:16.231Z,1.31
2019-03-21T00:28:11.204Z,1.59
2019-03-21T00:34:06.204Z,1.84
2019-03-21T00:40:01.182Z,1.93
2019-03-21T00:45:56.246Z,1.63
2019-03-21T00:51:51.191Z,1.43
2019-03-21T00:57:46.504Z,1.56
2019-03-21T01:03:41.228Z,1.7
2019-03-21T01:09:36.211Z,1.8
2019-03-21T01:15:31.222Z,1.81
2019-03-21T01:21:26.242Z,1.6
2019-03-21T01:27:21.218Z,1.53
2019-03-21T01:33:16.232Z,1.84
2019-03-21T01:39:11.246Z,1.88
2019-03-21T01:45:06.218Z,1.98
2019-03-21T01:51:01.215Z,1.84
2019-03-21T01:56:56.246Z,1.91
2019-03-21T02:02:51.264Z,1.95
2019-03-21T02:08:46.368Z,2.24
2019-03-21T02:14:51.476Z,2.48
2019-03-21T02:20:36.273Z,2.06
2019-03-21T02:26:31.240Z,2.14
2019-03-21T02:32:26.250Z,1.9
2019-03-21T02:38:21.273Z,1.98
2019-03-21T02:44:16.312Z,2.14
2019-03-21T02:50:11.282Z,1.78
2019-03-21T02:56:06.335Z,2.19
2019-03-21T03:02:01.277Z,1.89
2019-03-21T03:07:56.305Z,1.65
2019-03-21T03:13:51.618Z,2.44
2019-03-21T03:19:46.596Z,2.57
2019-03-21T03:25:41.338Z,2.24
2019-03-21T03:31:36.317Z,2.11
2019-03-21T03:37:31.341Z,2.23
2019-03-21T03:43:26.298Z,2.46
2019-03-21T03:49:21.309Z,2.79
2019-03-21T03:55:16.290Z,2.6
2019-03-21T04:01:11.328Z,2.77
2019-03-21T04:07:06.443Z,2.41
2019-03-21T04:13:01.322Z,2.51
2019-03-21T04:18:56.334Z,2.23
2019-03-21T04:24:51.337Z,2.12
2019-03-21T04:30:46.622Z,2.1
2019-03-21T04:36:41.356Z,2.34
2019-03-21T04:42:36.406Z,2.42
2019-03-21T04:48:31.381Z,2.38
2019-03-21T04:54:26.396Z,2.77
2019-03-21T05:00:21.338Z,2.43
2019-03-21T05:06:16.384Z,2.23
2019-03-21T05:12:11.368Z,2.63
2019-03-21T05:18:06.356Z,2.98
2019-03-21T05:24:01.387Z,12.63
2019-03-21T05:29:56.379Z,4.27
2019-03-21T05:35:51.356Z,2.26
2019-03-21T05:41:46.708Z,2.76
2019-03-21T05:47:41.404Z,2.16
2019-03-21T05:53:36.378Z,2.03
2019-03-21T05:59:31.465Z,2.25
2019-03-21T06:11:21.440Z,2.04
2019-03-21T06:11:21.444Z,2.6
2019-03-21T06:17:16.401Z,2
2019-03-21T06:23:11.386Z,2.24
2019-03-21T06:29:06.409Z,2.51
2019-03-21T06:35:01.453Z,2.15
2019-03-21T06:40:56.426Z,2.05
2019-03-21T06:46:51.419Z,2.29
2019-03-21T06:52:46.746Z,2.07
2019-03-21T07:04:36.423Z,2.35
2019-03-21T07:04:36.476Z,2.07
2019-03-21T07:10:31.449Z,2.36
2019-03-21T07:16:26.432Z,2.32
2019-03-21T07:22:21.479Z,1.83
2019-03-21T07:28:16.476Z,2.07
2019-03-21T07:34:11.455Z,2.09
2019-03-21T07:40:06.467Z,1.95
2019-03-21T07:46:01.442Z,3.74
2019-03-21T07:57:51.470Z,2.35
2019-03-21T07:57:51.538Z,2.88
2019-03-21T08:03:46.498Z,5.93
2019-03-21T08:09:41.553Z,5.77
2019-03-21T08:15:37.816Z,7.36
2019-03-21T08:21:31.482Z,2.47
2019-03-21T08:27:26.463Z,3.05
2019-03-21T08:33:21.470Z,3.02
2019-03-21T08:39:16.525Z,2.21
2019-03-21T08:45:11.522Z,2.47
2019-03-21T08:51:08.437Z,1.66
2019-03-21T08:57:01.546Z,2.16
2019-03-21T09:02:56.521Z,1.63
2019-03-21T09:08:51.826Z,2.34
2019-03-21T09:14:46.514Z,1.95
2019-03-21T09:20:41.568Z,2.06
2019-03-21T09:26:36.512Z,2.04
2019-03-21T09:32:31.517Z,1.81
2019-03-21T09:38:26.534Z,2.37
2019-03-21T09:44:21.518Z,2.19
2019-03-21T09:50:16.533Z,2.28
2019-03-21T09:56:11.530Z,2.01
2019-03-21T10:02:06.558Z,1.76
2019-03-21T10:08:01.544Z,2.03
2019-03-21T10:13:56.528Z,2.48
2019-03-21T10:19:51.627Z,1.78
2019-03-21T10:25:46.556Z,2.09
2019-03-21T10:31:41.567Z,2.02
2019-03-21T10:37:36.591Z,2.26
2019-03-21T10:43:31.632Z,2.12
2019-03-21T10:49:26.574Z,1.63
2019-03-21T10:55:21.568Z,1.88
2019-03-21T11:01:16.564Z,2.03
2019-03-21T11:07:11.624Z,1.67
2019-03-21T11:13:06.584Z,1.83
2019-03-21T11:19:01.583Z,1.97
2019-03-21T11:24:56.643Z,1.87
2019-03-21T11:30:51.625Z,1.68
2019-03-21T11:36:46.633Z,2.28
2019-03-21T11:42:41.585Z,2.1
2019-03-21T11:48:36.635Z,2.11
2019-03-21T11:54:31.595Z,2.36
2019-03-21T12:00:26.600Z,1.56
2019-03-21T12:06:21.668Z,1.69
2019-03-21T12:12:16.660Z,1.56
2019-03-21T12:18:11.665Z,1.66
2019-03-21T12:30:01.642Z,2
2019-03-21T12:30:01.676Z,1.73
2019-03-21T12:35:56.679Z,1.96
2019-03-21T12:41:51.919Z,2.39
2019-03-21T12:47:46.627Z,1.85
2019-03-21T12:53:41.639Z,2.74
2019-03-21T12:59:36.669Z,1.79
2019-03-21T13:05:31.664Z,1.74
2019-03-21T13:11:26.648Z,1.52
2019-03-21T13:17:21.647Z,2.18
2019-03-21T13:23:16.656Z,2.16
2019-03-21T13:29:11.649Z,2.06
2019-03-21T13:35:06.664Z,1.95
2019-03-21T13:41:01.691Z,2.08
2019-03-21T13:46:56.670Z,2.02
2019-03-21T13:52:51.978Z,1.92
2019-03-21T13:58:46.819Z,2.48
2019-03-21T14:04:41.706Z,2.02
2019-03-21T14:10:36.683Z,2.15
2019-03-21T14:16:31.766Z,2.53
2019-03-21T14:22:26.718Z,2.11
2019-03-21T14:28:21.688Z,2.2
2019-03-21T14:34:16.705Z,2.34
2019-03-21T14:40:11.711Z,2.43
2019-03-21T14:46:06.708Z,2.53
2019-03-21T14:52:01.722Z,3.08
2019-03-21T14:57:57.015Z,4.83
2019-03-21T15:03:52.094Z,3.18
2019-03-21T15:09:46.712Z,2.78
2019-03-21T15:15:41.775Z,4.46
2019-03-21T15:21:36.740Z,2.69
2019-03-21T15:27:31.742Z,2.68
2019-03-21T15:33:26.785Z,2.69
2019-03-21T15:39:21.774Z,2.62
2019-03-21T15:45:22.575Z,2.46
2019-03-21T15:51:11.747Z,2.22
2019-03-21T15:57:06.746Z,1.93
2019-03-21T16:03:01.782Z,2.72
2019-03-21T16:08:56.781Z,2.37
2019-03-21T16:14:52.045Z,2.33
2019-03-21T16:20:46.783Z,2.62
2019-03-21T16:26:41.807Z,2.3
2019-03-21T16:32:36.793Z,2.82
2019-03-21T16:38:31.791Z,2.49
2019-03-21T16:44:26.792Z,3.15
2019-03-21T16:50:21.798Z,2.78
2019-03-21T16:56:16.788Z,3.1
2019-03-21T17:02:11.786Z,3.04
2019-03-21T17:08:11.364Z,2.86
2019-03-21T17:14:01.860Z,3.04
2019-03-21T17:19:56.815Z,2.64
2019-03-21T17:25:52.120Z,2.74
2019-03-21T17:31:46.797Z,2.61
2019-03-21T17:37:41.830Z,2.99
2019-03-21T17:43:36.836Z,2.93
2019-03-21T17:49:31.811Z,5.37
2019-03-21T17:55:26.833Z,3.56
2019-03-21T18:01:21.835Z,2.76
2019-03-21T18:07:16.871Z,3.6
2019-03-21T18:13:11.825Z,3.07
2019-03-21T18:19:06.830Z,3.98
2019-03-21T18:25:01.865Z,2.73
2019-03-21T18:30:56.842Z,3.3
2019-03-21T18:36:51.849Z,3.72
2019-03-21T18:42:46.854Z,4.11
2019-03-21T18:48:41.879Z,3.83
2019-03-21T18:54:36.877Z,3.88
2019-03-21T19:00:31.897Z,4.16
2019-03-21T19:06:26.881Z,4.85
2019-03-21T19:12:21.865Z,6.63
2019-03-21T19:18:16.909Z,5.37
2019-03-21T19:24:11.913Z,5.72
2019-03-21T19:30:06.914Z,5.53
2019-03-21T19:36:01.911Z,5.26
2019-03-21T19:41:56.911Z,7.17
2019-03-21T19:47:51.896Z,6.8
2019-03-21T19:53:46.910Z,7.46
2019-03-21T19:59:41.922Z,7.19
2019-03-21T20:05:36.921Z,7.76
2019-03-21T20:11:31.914Z,6.84
2019-03-21T20:17:26.922Z,7.17
2019-03-21T20:23:21.916Z,7.87
2019-03-21T20:29:16.951Z,6.95
2019-03-21T20:35:11.925Z,6.24
2019-03-21T20:41:06.931Z,6.1
2019-03-21T20:47:01.937Z,6.06
2019-03-21T20:52:56.940Z,5.91
2019-03-21T20:58:53.596Z,5.92
2019-03-21T21:04:46.973Z,6.25
2019-03-21T21:10:41.965Z,6.31
2019-03-21T21:16:36.951Z,6.9
2019-03-21T21:22:31.961Z,7.03
2019-03-21T21:28:26.940Z,5.98
2019-03-21T21:34:21.966Z,5.85
2019-03-21T21:40:16.992Z,5.9
2019-03-21T21:46:12.082Z,6.32
2019-03-21T21:52:06.987Z,5.97
2019-03-21T21:58:01.975Z,5.93
2019-03-21T22:04:04.418Z,7.22
2019-03-21T22:09:52.300Z,6.35
2019-03-21T22:15:47.038Z,6.17
2019-03-21T22:21:41.988Z,6.34
2019-03-21T22:27:37.030Z,6.95
2019-03-21T22:33:32.031Z,7.19
2019-03-21T22:39:27.002Z,6.97
2019-03-21T22:45:22.023Z,7.47
2019-03-21T22:51:17.024Z,5.99
2019-03-21T22:57:12.017Z,6.81
2019-03-21T23:03:07.078Z,6.5
2019-03-21T23:09:02.009Z,6.11
2019-03-21T23:14:57.031Z,6.19
2019-03-21T23:20:52.255Z,6.21
2019-03-21T23:26:52.640Z,6.58
2019-03-21T23:32:42.081Z,5.47
2019-03-21T23:38:37.019Z,5.75
2019-03-21T23:44:32.046Z,6.05
2019-03-21T23:50:27.029Z,5.16
2019-03-21T23:56:22.066Z,5.13
